^^
Saratoga-Weather Station Historical Data
Daily Summary for May 30, 2021 Units:  English    Metric   Both
Daily Weekly Monthly Yearly Custom
  High: Low: Average:
Temperature: 61.9 °F 55.8 °F 58.1 °F
Dew Point: 58.5 °F 53.6 °F 55.6 °F
Humidity: 94% 81% 91%
Wind Speed: 12.1mph 0mph 2.8mph
Wind Gust: 16mph - -
Wind- - West
Pressure: 30 in 29.9 in -
Precipitation: 0.22 in    
Historical Graphs
 
 
Tabular Data for May 30, 2021
Time Temperature Dew Point Pressure Wind Wind Speed Wind Gust Humidity Rainfall Rate (Hourly) solar
00:01 57.7 °F 55.8 °F 29.9 in West 2 mph 3 mph 93% 0 in 0 W/m2
00:06 57.6 °F 55.6 °F 29.9 in WNW 0.9 mph 1 mph 93% 0 in 0 W/m2
00:11 57.4 °F 55.4 °F 29.9 in West 2.9 mph 3 mph 93% 0 in 0 W/m2
00:16 57.4 °F 55 °F 29.9 in West 0.9 mph 3 mph 92% 0 in 0 W/m2
00:21 57.2 °F 54.9 °F 29.9 in West 2 mph 5 mph 92% 0 in 0 W/m2
00:26 57.2 °F 54.9 °F 29.9 in West 2.9 mph 6 mph 92% 0 in 0 W/m2
00:31 57.2 °F 54.9 °F 29.9 in WNW 0.9 mph 6 mph 92% 0 in 0 W/m2
00:36 57.4 °F 55 °F 29.9 in Calm   2 mph 92% 0 in 0 W/m2
00:41 57.2 °F 54.9 °F 29.9 in West 2.9 mph 4 mph 92% 0 in 0 W/m2
00:46 57.2 °F 54.9 °F 29.9 in Calm   3 mph 92% 0 in 0 W/m2
00:51 57.2 °F 54.9 °F 29.9 in Calm   3 mph 92% 0 in 0 W/m2
00:56 57.2 °F 54.9 °F 29.9 in WNW 2 mph 4 mph 92% 0 in 0 W/m2
01:01 57.4 °F 55 °F 29.9 in West 2 mph 3 mph 92% 0 in 0 W/m2
01:06 57.4 °F 55 °F 29.9 in WNW 0.9 mph 3 mph 92% 0 in 0 W/m2
01:11 57.6 °F 55 °F 29.9 in West 2 mph 3 mph 91% 0 in 0 W/m2
01:16 57.7 °F 55.2 °F 29.9 in Calm   1 mph 91% 0 in 0 W/m2
01:21 57.7 °F 55.2 °F 29.9 in Calm   3 mph 91% 0 in 0 W/m2
01:26 57.6 °F 55.2 °F 29.9 in Calm     92% 0 in 0 W/m2
01:31 57.4 °F 55 °F 29.9 in Calm   1 mph 92% 0 in 0 W/m2
01:36 57.2 °F 54.9 °F 29.9 in Calm     92% 0 in 0 W/m2
01:41 57 °F 54.7 °F 29.9 in Calm   2 mph 92% 0 in 0 W/m2
01:46 57 °F 54.7 °F 29.9 in WNW 4 mph 4 mph 92% 0 in 0 W/m2
01:51 57 °F 55 °F 29.9 in WNW 0.9 mph 3 mph 93% 0 in 0 W/m2
01:56 57.2 °F 54.9 °F 29.9 in SW 2.9 mph 6 mph 92% 0 in 0 W/m2
02:01 57.4 °F 55 °F 29.9 in NW 2.9 mph 6 mph 92% 0 in 0 W/m2
02:06 57.4 °F 55 °F 29.9 in NW 4 mph 7 mph 92% 0 in 0 W/m2
02:11 57.4 °F 55 °F 29.9 in WNW 6.9 mph 7 mph 92% 0 in 0 W/m2
02:16 57.4 °F 55 °F 29.9 in WNW 0.9 mph 2 mph 92% 0 in 0 W/m2
02:21 57.2 °F 54.9 °F 29.9 in West 2 mph 7 mph 92% 0 in 0 W/m2
02:26 57 °F 55 °F 29.9 in NW 2 mph 3 mph 93% 0 in 0 W/m2
02:31 57 °F 55 °F 29.9 in SW 2 mph 7 mph 93% 0 in 0 W/m2
02:36 56.8 °F 54.9 °F 29.9 in West 8.1 mph 8 mph 93% 0 in 0 W/m2
02:41 56.8 °F 54.9 °F 29.9 in WSW 4.9 mph 5 mph 93% 0 in 0 W/m2
02:46 56.8 °F 54.9 °F 29.9 in WNW 0.9 mph 3 mph 93% 0 in 0 W/m2
02:51 56.7 °F 55 °F 29.9 in West 4 mph 5 mph 94% 0 in 0 W/m2
02:56 56.7 °F 54.7 °F 29.9 in WSW 2 mph 4 mph 93% 0 in 0 W/m2
03:01 56.5 °F 54.9 °F 29.9 in West 6.9 mph 7 mph 94% 0 in 0 W/m2
03:06 56.5 °F 54.9 °F 29.9 in WNW 0.9 mph 3 mph 94% 0 in 0 W/m2
03:11 56.5 °F 54.9 °F 29.9 in WNW 0.9 mph 2 mph 94% 0 in 0 W/m2
03:16 56.5 °F 54.9 °F 29.9 in WNW 2 mph 4 mph 94% 0 in 0 W/m2
03:21 56.5 °F 54.9 °F 29.9 in Calm   1 mph 94% 0 in 0 W/m2
03:26 56.7 °F 55 °F 29.9 in Calm   4 mph 94% 0 in 0 W/m2
03:31 56.7 °F 55 °F 29.9 in WNW 2.9 mph 5 mph 94% 0 in 0 W/m2
03:36 56.7 °F 55 °F 29.9 in WSW 2 mph 4 mph 94% 0 in 0 W/m2
03:41 56.7 °F 55 °F 29.9 in SW 0.9 mph 5 mph 94% 0 in 0 W/m2
03:46 56.7 °F 55 °F 29.9 in WNW 0.9 mph 2 mph 94% 0 in 0 W/m2
03:51 56.5 °F 54.9 °F 29.9 in WSW 0.9 mph 3 mph 94% 0 in 0 W/m2
03:56 56.5 °F 54.9 °F 29.9 in Calm     94% 0 in 0 W/m2
04:02 56.3 °F 54.7 °F 29.9 in NW 0.9 mph 3 mph 94% 0 in 0 W/m2
04:07 56.3 °F 54.7 °F 29.9 in Calm   2 mph 94% 0 in 0 W/m2
04:12 56.3 °F 54.7 °F 29.9 in Calm   1 mph 94% 0 in 0 W/m2
04:17 56.3 °F 54.7 °F 29.9 in Calm   2 mph 94% 0 in 0 W/m2
04:22 56.3 °F 54.7 °F 29.9 in North 0.9 mph 3 mph 94% 0 in 0 W/m2
04:27 56.3 °F 54.7 °F 29.9 in NE 2 mph 2 mph 94% 0 in 0 W/m2
04:32 56.5 °F 54.9 °F 29.9 in NNE 2 mph 2 mph 94% 0 in 0 W/m2
04:37 56.5 °F 54.9 °F 29.9 in Calm   1 mph 94% 0 in 0 W/m2
04:42 56.5 °F 54.9 °F 29.9 in Calm   1 mph 94% 0 in 0 W/m2
04:47 56.5 °F 54.9 °F 29.9 in Calm   2 mph 94% 0 in 0 W/m2
04:52 56.5 °F 54.9 °F 29.9 in NNW 0.9 mph 3 mph 94% 0 in 0 W/m2
04:57 56.5 °F 54.9 °F 29.9 in Calm     94% 0 in 0 W/m2
05:02 56.7 °F 55 °F 29.9 in Calm   3 mph 94% 0 in 0 W/m2
05:07 56.5 °F 54.9 °F 29.9 in South 0.9 mph 6 mph 94% 0 in 0 W/m2
05:12 56.5 °F 54.5 °F 29.9 in West 0.9 mph 2 mph 93% 0 in 0 W/m2
05:17 56.5 °F 54.5 °F 29.9 in West 2 mph 3 mph 93% 0 in 0 W/m2
05:22 56.5 °F 54.5 °F 29.9 in Calm   2 mph 93% 0 in 0 W/m2
05:27 56.5 °F 54.5 °F 29.9 in NW 0.9 mph 3 mph 93% 0 in 0 W/m2
05:32 56.5 °F 54.5 °F 29.9 in North 2 mph 2 mph 93% 0 in 0 W/m2
05:37 56.5 °F 54.5 °F 29.9 in NNW 2 mph 3 mph 93% 0 in 0 W/m2
05:42 56.5 °F 54.5 °F 29.9 in NNE 0.9 mph 3 mph 93% 0 in 0 W/m2
05:47 56.5 °F 54.5 °F 29.9 in Calm   2 mph 93% 0 in 7 W/m2
05:52 56.5 °F 54.5 °F 29.9 in Calm   3 mph 93% 0 in 12 W/m2
05:57 56.5 °F 54.5 °F 29.9 in NNW 0.9 mph 2 mph 93% 0 in 16 W/m2
06:02 56.7 °F 54.7 °F 29.9 in NW 0.9 mph 5 mph 93% 0 in 19 W/m2
06:07 56.7 °F 54.7 °F 29.9 in NW 2 mph 4 mph 93% 0 in 21 W/m2
06:12 56.5 °F 54.5 °F 29.9 in Calm   2 mph 93% 0 in 19 W/m2
06:17 56.7 °F 54.7 °F 29.9 in NW 2 mph 3 mph 93% 0 in 26 W/m2
06:22 56.7 °F 54.7 °F 29.9 in NW 0.9 mph 3 mph 93% 0 in 26 W/m2
06:27 56.7 °F 54.7 °F 29.9 in Calm   4 mph 93% 0 in 32 W/m2
06:32 56.7 °F 54.7 °F 29.9 in SW 4 mph 6 mph 93% 0 in 30 W/m2
06:37 56.7 °F 54.7 °F 29.9 in ENE 0.9 mph 3 mph 93% 0 in 32 W/m2
06:42 56.7 °F 54.3 °F 29.9 in NE 2 mph 3 mph 92% 0 in 35 W/m2
06:47 56.8 °F 54.5 °F 29.9 in NW 0.9 mph 2 mph 92% 0 in 33 W/m2
06:52 56.8 °F 54.5 °F 29.9 in NNW 2.9 mph 5 mph 92% 0 in 30 W/m2
06:57 56.8 °F 54.5 °F 29.9 in West 6 mph 6 mph 92% 0 in 23 W/m2
07:02 56.8 °F 54.5 °F 29.9 in NW 2 mph 2 mph 92% 0 in 21 W/m2
07:07 56.8 °F 54.5 °F 29.9 in Calm   2 mph 92% 0 in 30 W/m2
07:12 56.8 °F 54.5 °F 29.9 in Calm   3 mph 92% 0 in 21 W/m2
07:17 57 °F 54.7 °F 29.9 in Calm   1 mph 92% 0 in 28 W/m2
07:22 57 °F 54.7 °F 29.9 in Calm   3 mph 92% 0 in 28 W/m2
07:28 57 °F 54.7 °F 29.9 in Calm   2 mph 92% 0 in 33 W/m2
07:33 57 °F 54.7 °F 29.9 in WNW 0.9 mph 3 mph 92% 0 in 44 W/m2
07:38 57 °F 54.5 °F 29.9 in ESE 0.9 mph 3 mph 91% 0 in 74 W/m2
07:43 57.2 °F 54.7 °F 29.9 in NW 0.9 mph 2 mph 91% 0 in 102 W/m2
07:48 57.4 °F 54.9 °F 29.9 in WNW 2.9 mph 4 mph 91% 0 in 178 W/m2
07:53 57.7 °F 54.9 °F 29.9 in NW 2 mph 4 mph 90% 0 in 199 W/m2
07:58 57.9 °F 55 °F 29.9 in NW 4.9 mph 5 mph 90% 0 in 153 W/m2
08:03 58.1 °F 55.2 °F 29.9 in Calm   4 mph 90% 0 in 174 W/m2
08:08 58.3 °F 55.4 °F 29.9 in WNW 5 mph 5 mph 90% 0 in 179 W/m2
08:13 58.5 °F 55.2 °F 29.9 in WNW 2.9 mph 3 mph 89% 0 in 283 W/m2
08:18 58.6 °F 55.4 °F 29.9 in West 2 mph 3 mph 89% 0 in 183 W/m2
08:23 58.6 °F 55.4 °F 29.9 in WNW 4 mph 4 mph 89% 0 in 167 W/m2
08:28 58.6 °F 55.4 °F 29.9 in NW 0.9 mph 3 mph 89% 0 in 246 W/m2
08:33 58.8 °F 55.2 °F 29.9 in NW 0.9 mph 3 mph 88% 0 in 265 W/m2
08:38 59.4 °F 55.8 °F 29.9 in NW 0.9 mph 7 mph 88% 0 in 237 W/m2
08:43 59.7 °F 55.8 °F 29.9 in SW 4.9 mph 5 mph 87% 0 in 221 W/m2
08:48 60.3 °F 56.3 °F 29.9 in Calm   8 mph 87% 0 in 206 W/m2
08:53 60.4 °F 56.3 °F 29.9 in West 6 mph 12 mph 86% 0 in 278 W/m2
08:58 60.6 °F 56.1 °F 29.9 in NW 2.9 mph 3 mph 85% 0 in 253 W/m2
09:03 60.8 °F 56.3 °F 29.9 in Calm   3 mph 85% 0 in 243 W/m2
09:08 61 °F 56.1 °F 29.9 in NE 0.9 mph 2 mph 84% 0 in 294 W/m2
09:13 61 °F 56.1 °F 29.9 in SW 2 mph 7 mph 84% 0 in 206 W/m2
09:18 60.8 °F 55.9 °F 29.9 in WNW 0.9 mph 4 mph 84% 0 in 190 W/m2
09:23 60.4 °F 55.9 °F 29.9 in Calm   6 mph 85% 0 in 227 W/m2
09:28 60.4 °F 56.3 °F 29.9 in NW 2.9 mph 5 mph 86% 0 in 251 W/m2
09:33 60.4 °F 55.9 °F 29.9 in North 2 mph 4 mph 85% 0 in 220 W/m2
09:38 60.6 °F 56.5 °F 29.9 in WNW 4 mph 4 mph 86% 0 in 211 W/m2
09:43 60.6 °F 55.8 °F 29.9 in NW 0.9 mph 5 mph 84% 0 in 195 W/m2
09:48 60.6 °F 56.1 °F 29.9 in ENE 2 mph 3 mph 85% 0 in 185 W/m2
09:53 60.6 °F 56.1 °F 29.9 in ENE 0.9 mph 3 mph 85% 0 in 179 W/m2
09:58 60.8 °F 56.3 °F 29.9 in NNE 0.9 mph 3 mph 85% 0 in 190 W/m2
10:03 61 °F 56.1 °F 29.9 in SW 0.9 mph 6 mph 84% 0 in 179 W/m2
10:08 61 °F 56.5 °F 29.9 in West 8.1 mph 8 mph 85% 0 in 163 W/m2
10:13 60.8 °F 56.3 °F 29.9 in NW 2.9 mph 6 mph 85% 0 in 162 W/m2
10:18 60.6 °F 55.8 °F 29.9 in NNW 2.9 mph 4 mph 84% 0 in 181 W/m2
10:23 60.8 °F 56.3 °F 29.9 in SW 0.9 mph 4 mph 85% 0 in 190 W/m2
10:28 60.6 °F 56.5 °F 29.9 in West 2 mph 5 mph 86% 0 in 158 W/m2
10:33 60.4 °F 56.8 °F 29.9 in NNW 0.9 mph 2 mph 88% 0 in 130 W/m2
10:38 60.3 °F 57 °F 29.9 in Calm   3 mph 89% 0 in 114 W/m2
10:43 60.1 °F 57.2 °F 29.9 in NW 0.9 mph 2 mph 90% 0 in 93 W/m2
10:48 59.7 °F 56.8 °F 29.9 in NW 2.9 mph 3 mph 90% 0 in 118 W/m2
10:53 59.5 °F 56.7 °F 29.9 in West 0.9 mph 2 mph 90% 0 in 109 W/m2
10:58 59.5 °F 56.8 °F 29.9 in WNW 4 mph 6 mph 91% 0 in 121 W/m2
11:03 59.4 °F 57 °F 29.9 in WNW 0.9 mph 3 mph 92% 0 in 178 W/m2
11:08 59.5 °F 57.2 °F 29.9 in Calm   6 mph 92% 0.01 in 195 W/m2
11:13 59.5 °F 57.2 °F 29.9 in NNW 0.9 mph 4 mph 92% 0.01 in 172 W/m2
11:18 59.5 °F 57.2 °F 29.9 in WNW 2.9 mph 7 mph 92% 0.01 in 146 W/m2
11:23 59.5 °F 57.2 °F 29.9 in Calm   3 mph 92% 0.01 in 185 W/m2
11:28 59.7 °F 57.4 °F 29.9 in NNE 0.9 mph 7 mph 92% 0.01 in 156 W/m2
11:33 59.7 °F 57 °F 29.9 in East 0.9 mph 2 mph 91% 0.01 in 142 W/m2
11:38 59.7 °F 57.4 °F 29.9 in WNW 2 mph 4 mph 92% 0.01 in 121 W/m2
11:43 59.7 °F 57.4 °F 29.9 in East 0.9 mph 2 mph 92% 0.01 in 97 W/m2
11:48 59.5 °F 57.2 °F 29.9 in West 2 mph 4 mph 92% 0.01 in 70 W/m2
11:53 59.4 °F 57 °F 29.9 in WNW 2 mph 4 mph 92% 0.01 in 76 W/m2
11:58 59.4 °F 57 °F 29.9 in WNW 0.9 mph 2 mph 92% 0.01 in 93 W/m2
12:03 59.4 °F 57 °F 29.9 in Calm   2 mph 92% 0.01 in 77 W/m2
12:08 59.4 °F 57.4 °F 29.9 in Calm   1 mph 93% 0.01 in 90 W/m2
12:13 59.4 °F 57.4 °F 29.9 in Calm   1 mph 93% 0.01 in 90 W/m2
12:18 59.4 °F 57.4 °F 29.9 in NNW 0.9 mph 4 mph 93% 0.01 in 100 W/m2
12:23 59.2 °F 57.2 °F 29.9 in North 0.9 mph 1 mph 93% 0.01 in 95 W/m2
12:28 59.4 °F 57.4 °F 29.9 in Calm   4 mph 93% 0.01 in 120 W/m2
12:33 59.5 °F 57.6 °F 29.9 in Calm   1 mph 93% 0.01 in 79 W/m2
12:38 59.5 °F 57.6 °F 29.9 in Calm   1 mph 93% 0.02 in 77 W/m2
12:43 59.5 °F 57.6 °F 29.9 in West 2 mph 3 mph 93% 0.04 in 70 W/m2
12:48 59.4 °F 57.4 °F 29.9 in NNW 0.9 mph 2 mph 93% 0.06 in 46 W/m2
12:53 59.2 °F 57.2 °F 29.9 in Calm   2 mph 93% 0.09 in 109 W/m2
12:58 59.2 °F 57.2 °F 29.9 in Calm     93% 0.11 in 156 W/m2
13:03 59.4 °F 57.6 °F 29.9 in Calm     94% 0.13 in 176 W/m2
13:08 59.4 °F 57.6 °F 29.9 in NW 2 mph 2 mph 94% 0.14 in 153 W/m2
13:13 59.5 °F 57.7 °F 29.9 in West 0.9 mph 2 mph 94% 0.15 in 121 W/m2
13:18 59.5 °F 57.7 °F 29.9 in Calm   1 mph 94% 0.16 in 149 W/m2
13:23 59.7 °F 57.9 °F 29.9 in NW 0.9 mph 2 mph 94% 0.17 in 155 W/m2
13:28 59.5 °F 57.6 °F 29.9 in West 6.9 mph 8 mph 93% 0.17 in 151 W/m2
13:33 59.4 °F 57 °F 29.9 in WNW 2.9 mph 4 mph 92% 0.17 in 156 W/m2
13:38 59.4 °F 57 °F 29.9 in WNW 2 mph 8 mph 92% 0.16 in 169 W/m2
13:43 59.4 °F 57 °F 29.9 in WNW 2 mph 3 mph 92% 0.13 in 181 W/m2
13:48 59.5 °F 57.6 °F 29.9 in WNW 2.9 mph 3 mph 93% 0.11 in 186 W/m2
13:53 59.5 °F 57.2 °F 29.9 in Calm   3 mph 92% 0.09 in 176 W/m2
13:58 59.7 °F 57.4 °F 29.9 in West 0.9 mph 2 mph 92% 0.07 in 174 W/m2
14:03 59.9 °F 57.6 °F 29.9 in West 2 mph 5 mph 92% 0.04 in 199 W/m2
14:08 60.1 °F 57.7 °F 29.9 in WSW 0.9 mph 4 mph 92% 0.03 in 207 W/m2
14:13 60.3 °F 57.9 °F 29.9 in Calm   1 mph 92% 0.02 in 220 W/m2
14:18 60.4 °F 58.5 °F 29.9 in West 0.9 mph 4 mph 93% 0.02 in 162 W/m2
14:23 60.6 °F 58.3 °F 29.9 in West 0.9 mph 3 mph 92% 0.02 in 84 W/m2
14:28 60.6 °F 58.3 °F 29.9 in WNW 0.9 mph 3 mph 92% 0.02 in 118 W/m2
14:33 60.6 °F 58.3 °F 29.9 in West 2.9 mph 9 mph 92% 0.02 in 204 W/m2
14:38 60.4 °F 57.7 °F 29.9 in West 8.1 mph 9 mph 91% 0.02 in 309 W/m2
14:44 60.6 °F 57.9 °F 29.9 in WNW 4 mph 8 mph 91% 0.02 in 357 W/m2
14:49 61 °F 58.3 °F 29.9 in West 2 mph 6 mph 91% 0.02 in 359 W/m2
14:54 61.2 °F 58.3 °F 29.9 in WNW 2.9 mph 12 mph 90% 0.01 in 364 W/m2
14:59 61.2 °F 58.3 °F 29.9 in NW 4 mph 8 mph 90% 0.01 in 227 W/m2
15:04 61.2 °F 58.3 °F 29.9 in NW 2 mph 7 mph 90% 0.01 in 236 W/m2
15:09 61.2 °F 58.3 °F 29.9 in WNW 4.9 mph 9 mph 90% 0.01 in 345 W/m2
15:14 61 °F 58.1 °F 29.9 in WNW 8.1 mph 12 mph 90% 0.01 in 302 W/m2
15:19 60.6 °F 57.4 °F 29.9 in WSW 8.1 mph 9 mph 89% 0.01 in 255 W/m2
15:24 60.3 °F 56.7 °F 29.9 in West 6.9 mph 11 mph 88% 0 in 234 W/m2
15:29 60.1 °F 56.5 °F 29.9 in West 10.1 mph 10 mph 88% 0 in 267 W/m2
15:34 60.1 °F 56.5 °F 29.9 in West 8.9 mph 13 mph 88% 0 in 276 W/m2
15:39 60.1 °F 56.1 °F 29.9 in West 6.9 mph 10 mph 87% 0 in 299 W/m2
15:44 60.1 °F 56.5 °F 29.9 in West 8.1 mph 13 mph 88% 0 in 278 W/m2
15:49 60.3 °F 56.7 °F 29.9 in West 8.9 mph 10 mph 88% 0 in 308 W/m2
15:54 60.3 °F 56.3 °F 29.9 in WNW 2.9 mph 9 mph 87% 0 in 339 W/m2
15:59 60.3 °F 56.1 °F 29.9 in West 8.9 mph 13 mph 86% 0 in 471 W/m2
16:04 60.6 °F 56.7 °F 29.9 in West 2.9 mph 10 mph 87% 0 in 390 W/m2
16:09 60.8 °F 56.3 °F 29.9 in West 2.9 mph 10 mph 85% 0 in 489 W/m2
16:14 61.2 °F 57 °F 29.9 in WNW 6.9 mph 10 mph 86% 0 in 427 W/m2
16:19 61.2 °F 56.3 °F 29.9 in West 6.9 mph 12 mph 84% 0 in 420 W/m2
16:24 61.3 °F 56.8 °F 29.9 in NW 4.9 mph 10 mph 85% 0 in 401 W/m2
16:29 61.5 °F 56.7 °F 29.9 in NW 4 mph 12 mph 84% 0 in 431 W/m2
16:34 61.5 °F 55.9 °F 29.9 in WSW 4 mph 14 mph 82% 0 in 422 W/m2
16:39 61.9 °F 56.7 °F 29.9 in WNW 8.9 mph 12 mph 83% 0 in 294 W/m2
16:44 61.7 °F 55.8 °F 29.9 in West 8.9 mph 12 mph 81% 0 in 237 W/m2
16:49 61.3 °F 55.8 °F 29.9 in WSW 8.9 mph 10 mph 82% 0 in 271 W/m2
16:54 61 °F 55.8 °F 29.9 in WNW 2.9 mph 13 mph 83% 0 in 155 W/m2
16:59 60.4 °F 55.6 °F 29.9 in WSW 10.1 mph 16 mph 84% 0 in 176 W/m2
17:04 59.7 °F 55.6 °F 29.9 in West 6.9 mph 8 mph 86% 0 in 148 W/m2
17:09 59.2 °F 55.6 °F 29.9 in West 12.1 mph 16 mph 88% 0 in 105 W/m2
17:14 58.8 °F 55.6 °F 29.9 in WNW 4 mph 12 mph 89% 0 in 83 W/m2
17:19 58.5 °F 55.2 °F 29.9 in WNW 4 mph 11 mph 89% 0 in 144 W/m2
17:24 58.3 °F 55 °F 29.9 in West 8.1 mph 9 mph 89% 0 in 178 W/m2
17:29 58.1 °F 54.9 °F 29.9 in West 4 mph 11 mph 89% 0 in 190 W/m2
17:34 58.3 °F 55.4 °F 29.9 in West 6 mph 9 mph 90% 0 in 225 W/m2
17:39 58.5 °F 55.6 °F 29.9 in West 2.9 mph 11 mph 90% 0 in 223 W/m2
17:44 58.6 °F 55.4 °F 29.9 in WNW 8.1 mph 10 mph 89% 0 in 211 W/m2
17:49 58.8 °F 55.6 °F 29.9 in SW 4 mph 7 mph 89% 0 in 214 W/m2
17:54 59.2 °F 55.6 °F 29.9 in WSW 2.9 mph 9 mph 88% 0 in 199 W/m2
17:59 59.4 °F 55.8 °F 29.9 in West 4 mph 12 mph 88% 0 in 176 W/m2
18:04 59.4 °F 55.8 °F 29.9 in West 6.9 mph 11 mph 88% 0 in 167 W/m2
18:09 59.4 °F 55.2 °F 29.9 in West 6.9 mph 10 mph 86% 0 in 134 W/m2
18:14 59.5 °F 55.4 °F 29.9 in NW 6 mph 8 mph 86% 0 in 137 W/m2
18:19 59.5 °F 55 °F 29.9 in West 6 mph 9 mph 85% 0 in 130 W/m2
18:24 59.5 °F 55.4 °F 29.9 in WNW 4 mph 7 mph 86% 0 in 95 W/m2
18:29 59.4 °F 55.2 °F 29.9 in WSW 4 mph 10 mph 86% 0 in 83 W/m2
18:34 59.4 °F 55.2 °F 29.9 in WNW 8.1 mph 11 mph 86% 0 in 98 W/m2
18:39 59.2 °F 55 °F 29.9 in West 6 mph 10 mph 86% 0 in 97 W/m2
18:44 59 °F 55.2 °F 29.9 in West 2.9 mph 11 mph 87% 0 in 90 W/m2
18:49 58.8 °F 54.7 °F 29.9 in NNW 4 mph 11 mph 86% 0 in 74 W/m2
18:54 58.8 °F 54.7 °F 29.9 in West 2.9 mph 7 mph 86% 0 in 77 W/m2
18:59 58.8 °F 54.7 °F 29.9 in West 2.9 mph 9 mph 86% 0 in 72 W/m2
19:04 58.6 °F 54.9 °F 29.9 in WSW 2.9 mph 9 mph 87% 0 in 60 W/m2
19:09 58.5 °F 55.2 °F 29.9 in WSW 4 mph 8 mph 89% 0 in 46 W/m2
19:14 58.1 °F 54.9 °F 29.9 in West 6.9 mph 10 mph 89% 0 in 30 W/m2
19:19 57.7 °F 54.9 °F 29.9 in West 6 mph 9 mph 90% 0 in 49 W/m2
19:24 57.6 °F 55 °F 29.9 in West 11 mph 11 mph 91% 0 in 32 W/m2
19:29 57.2 °F 54.9 °F 29.9 in West 6.9 mph 8 mph 92% 0.01 in 37 W/m2
19:34 57 °F 54.7 °F 29.9 in WNW 4.9 mph 6 mph 92% 0.01 in 39 W/m2
19:39 56.8 °F 54.5 °F 29.9 in WNW 8.1 mph 9 mph 92% 0.02 in 40 W/m2
19:44 56.8 °F 54.9 °F 29.9 in WSW 11 mph 11 mph 93% 0.02 in 46 W/m2
19:49 56.7 °F 54.7 °F 29.9 in WSW 6 mph 11 mph 93% 0.02 in 44 W/m2
19:54 56.7 °F 54.7 °F 29.9 in WNW 2.9 mph 9 mph 93% 0.02 in 44 W/m2
19:59 56.8 °F 54.9 °F 29.9 in West 4 mph 11 mph 93% 0.02 in 42 W/m2
20:04 56.8 °F 54.9 °F 29.9 in WNW 2.9 mph 7 mph 93% 0.02 in 39 W/m2
20:09 56.8 °F 54.9 °F 29.9 in West 2.9 mph 7 mph 93% 0.02 in 35 W/m2
20:14 56.8 °F 54.9 °F 29.9 in WSW 4 mph 8 mph 93% 0.02 in 32 W/m2
20:19 56.8 °F 54.9 °F 29.9 in West 2.9 mph 9 mph 93% 0.02 in 21 W/m2
20:24 56.8 °F 54.9 °F 29.9 in WNW 2.9 mph 7 mph 93% 0.02 in 30 W/m2
20:29 56.8 °F 54.9 °F 29.9 in West 6 mph 9 mph 93% 0.01 in 25 W/m2
20:34 56.8 °F 54.9 °F 29.9 in West 6 mph 8 mph 93% 0.01 in 16 W/m2
20:39 56.8 °F 54.9 °F 29.9 in West 4 mph 10 mph 93% 0 in 14 W/m2
20:44 56.7 °F 54.7 °F 29.9 in WSW 4 mph 9 mph 93% 0 in 19 W/m2
20:49 56.7 °F 54.7 °F 29.9 in West 2.9 mph 7 mph 93% 0 in 14 W/m2
20:54 56.5 °F 54.5 °F 29.9 in West 6.9 mph 7 mph 93% 0 in 12 W/m2
20:59 56.5 °F 54.5 °F 29.9 in WNW 2.9 mph 6 mph 93% 0 in 11 W/m2
21:04 56.5 °F 54.9 °F 29.9 in WNW 4 mph 4 mph 94% 0.01 in 23 W/m2
21:09 56.3 °F 54.7 °F 29.9 in West 4 mph 7 mph 94% 0.01 in 18 W/m2
21:14 56.3 °F 54.7 °F 30 in SSW 4 mph 5 mph 94% 0.01 in 12 W/m2
21:19 56.1 °F 54.5 °F 30 in West 4 mph 8 mph 94% 0.01 in 9 W/m2
21:24 56.1 °F 54.1 °F 30 in WNW 8.1 mph 10 mph 93% 0.01 in 7 W/m2
21:29 56.1 °F 54.1 °F 30 in NW 4 mph 11 mph 93% 0.01 in 0 W/m2
21:34 56.1 °F 53.8 °F 30 in West 10.1 mph 11 mph 92% 0.01 in 0 W/m2
21:39 56.1 °F 53.8 °F 30 in West 2 mph 8 mph 92% 0.01 in 0 W/m2
21:44 56.1 °F 53.8 °F 30 in WNW 4 mph 8 mph 92% 0.01 in 0 W/m2
21:49 56.1 °F 53.8 °F 30 in WNW 4 mph 6 mph 92% 0.01 in 0 W/m2
21:54 56.1 °F 53.8 °F 30 in WNW 2.9 mph 6 mph 92% 0.01 in 0 W/m2
21:59 56.1 °F 53.8 °F 30 in West 2.9 mph 7 mph 92% 0 in 0 W/m2
22:04 55.9 °F 53.6 °F 30 in West 4 mph 6 mph 92% 0 in 0 W/m2
22:09 55.9 °F 53.6 °F 30 in WNW 2 mph 7 mph 92% 0 in 0 W/m2
22:14 55.9 °F 53.6 °F 30 in WSW 2 mph 8 mph 92% 0 in 0 W/m2
22:19 55.9 °F 54 °F 30 in WSW 2.9 mph 3 mph 93% 0 in 0 W/m2
22:24 55.9 °F 54 °F 30 in SW 2.9 mph 3 mph 93% 0 in 0 W/m2
22:29 55.9 °F 54 °F 30 in West 4 mph 5 mph 93% 0 in 0 W/m2
22:34 55.8 °F 53.8 °F 30 in WNW 2.9 mph 5 mph 93% 0 in 0 W/m2
22:39 55.8 °F 53.8 °F 30 in WNW 2.9 mph 4 mph 93% 0 in 0 W/m2
22:44 55.8 °F 53.8 °F 30 in WNW 2 mph 4 mph 93% 0 in 0 W/m2
22:49 55.8 °F 53.8 °F 30 in WNW 2 mph 3 mph 93% 0 in 0 W/m2
22:54 55.8 °F 53.8 °F 30 in West 2.9 mph 3 mph 93% 0 in 0 W/m2
22:59 55.9 °F 54 °F 30 in WSW 2.9 mph 5 mph 93% 0 in 0 W/m2
23:04 55.9 °F 54 °F 30 in West 2 mph 3 mph 93% 0 in 0 W/m2
23:09 55.9 °F 54 °F 30 in West 0.9 mph 4 mph 93% 0 in 0 W/m2
23:14 55.9 °F 54.3 °F 30 in West 2 mph 4 mph 94% 0 in 0 W/m2
23:19 55.9 °F 54.3 °F 30 in West 4 mph 8 mph 94% 0 in 0 W/m2
23:24 55.9 °F 54.3 °F 30 in SW 2 mph 4 mph 94% 0 in 0 W/m2
23:29 55.9 °F 54.3 °F 30 in West 2.9 mph 6 mph 94% 0 in 0 W/m2
23:34 56.1 °F 54.5 °F 30 in WSW 2 mph 7 mph 94% 0 in 0 W/m2
23:39 56.1 °F 54.5 °F 30 in WNW 2.9 mph 6 mph 94% 0 in 0 W/m2
23:45 56.1 °F 54.5 °F 30 in WSW 0.9 mph 7 mph 94% 0 in 0 W/m2
23:50 56.1 °F 54.5 °F 30 in West 2 mph 4 mph 94% 0 in 0 W/m2
23:55 56.1 °F 54.5 °F 30 in West 2.9 mph 5 mph 94% 0 in 0 W/m2
Juneau County Weather
Compliments of Weather Underground - 4 mb